sensor_id;sensor_type;location;lat;lon;timestamp;pressure;altitude;pressure_sealevel;temperature;humidity
57847;BME280;43675;50.030;21.952;2023-07-31T00:01:25;98235.55;;;17.08;84.94
57847;BME280;43675;50.030;21.952;2023-07-31T00:03:52;98236.27;;;17.04;84.88
57847;BME280;43675;50.030;21.952;2023-07-31T00:06:18;98234.84;;;17.00;84.87
57847;BME280;43675;50.030;21.952;2023-07-31T00:08:45;98237.31;;;16.95;84.80
57847;BME280;43675;50.030;21.952;2023-07-31T00:11:11;98233.08;;;16.91;84.95
57847;BME280;43675;50.030;21.952;2023-07-31T00:13:38;98231.91;;;16.85;84.87
57847;BME280;43675;50.030;21.952;2023-07-31T00:16:04;98227.55;;;16.79;84.96
57847;BME280;43675;50.030;21.952;2023-07-31T00:18:31;98225.73;;;16.73;84.94
57847;BME280;43675;50.030;21.952;2023-07-31T00:20:57;98223.43;;;16.67;84.97
57847;BME280;43675;50.030;21.952;2023-07-31T00:23:24;98228.60;;;16.62;85.11
57847;BME280;43675;50.030;21.952;2023-07-31T00:25:50;98231.27;;;16.56;85.24
57847;BME280;43675;50.030;21.952;2023-07-31T00:28:16;98232.98;;;16.51;85.45
57847;BME280;43675;50.030;21.952;2023-07-31T00:30:43;98235.50;;;16.47;85.56
57847;BME280;43675;50.030;21.952;2023-07-31T00:33:09;98234.92;;;16.42;85.58
57847;BME280;43675;50.030;21.952;2023-07-31T00:35:36;98229.70;;;16.37;85.79
57847;BME280;43675;50.030;21.952;2023-07-31T00:38:02;98232.27;;;16.32;85.85
57847;BME280;43675;50.030;21.952;2023-07-31T00:40:29;98234.52;;;16.27;85.94
57847;BME280;43675;50.030;21.952;2023-07-31T00:42:55;98230.27;;;16.23;86.02
57847;BME280;43675;50.030;21.952;2023-07-31T00:45:23;98228.71;;;16.17;86.06
57847;BME280;43675;50.030;21.952;2023-07-31T00:47:50;98228.52;;;16.11;86.34
57847;BME280;43675;50.030;21.952;2023-07-31T00:50:17;98229.20;;;16.08;86.31
57847;BME280;43675;50.030;21.952;2023-07-31T00:52:43;98230.38;;;16.05;86.61
57847;BME280;43675;50.030;21.952;2023-07-31T00:55:10;98231.43;;;16.02;86.82
57847;BME280;43675;50.030;21.952;2023-07-31T00:57:38;98231.08;;;15.98;86.87
57847;BME280;43675;50.030;21.952;2023-07-31T01:00:06;98230.70;;;15.97;86.98
57847;BME280;43675;50.030;21.952;2023-07-31T01:02:33;98226.99;;;15.95;87.13
57847;BME280;43675;50.030;21.952;2023-07-31T01:05:01;98227.42;;;15.94;87.08
57847;BME280;43675;50.030;21.952;2023-07-31T01:07:49;98231.77;;;15.90;87.14
57847;BME280;43675;50.030;21.952;2023-07-31T01:10:23;98231.91;;;15.86;87.19
57847;BME280;43675;50.030;21.952;2023-07-31T01:12:52;98229.97;;;15.81;87.16
57847;BME280;43675;50.030;21.952;2023-07-31T01:15:20;98229.66;;;15.75;86.85
57847;BME280;43675;50.030;21.952;2023-07-31T01:17:47;98225.73;;;15.73;87.13
57847;BME280;43675;50.030;21.952;2023-07-31T01:20:23;98227.61;;;15.71;87.36
57847;BME280;43675;50.030;21.952;2023-07-31T01:31:18;98231.48;;;15.61;87.49
57847;BME280;43675;50.030;21.952;2023-07-31T01:33:46;98227.91;;;15.61;87.65
57847;BME280;43675;50.030;21.952;2023-07-31T01:36:14;98228.84;;;15.61;87.69
57847;BME280;43675;50.030;21.952;2023-07-31T01:38:41;98226.30;;;15.61;88.01
57847;BME280;43675;50.030;21.952;2023-07-31T01:41:08;98229.55;;;15.62;88.21
57847;BME280;43675;50.030;21.952;2023-07-31T01:43:34;98232.15;;;15.64;88.34
57847;BME280;43675;50.030;21.952;2023-07-31T01:46:01;98230.86;;;15.65;88.47
57847;BME280;43675;50.030;21.952;2023-07-31T01:48:27;98232.63;;;15.68;88.59
57847;BME280;43675;50.030;21.952;2023-07-31T01:50:53;98232.91;;;15.70;88.55
57847;BME280;43675;50.030;21.952;2023-07-31T01:53:20;98240.31;;;15.75;88.53
57847;BME280;43675;50.030;21.952;2023-07-31T01:55:46;98238.23;;;15.78;88.38
57847;BME280;43675;50.030;21.952;2023-07-31T01:58:13;98237.33;;;15.81;88.30
57847;BME280;43675;50.030;21.952;2023-07-31T02:00:39;98238.39;;;15.84;88.14
57847;BME280;43675;50.030;21.952;2023-07-31T02:03:06;98238.83;;;15.85;87.98
57847;BME280;43675;50.030;21.952;2023-07-31T02:05:33;98239.00;;;15.86;87.84
57847;BME280;43675;50.030;21.952;2023-07-31T02:07:59;98241.48;;;15.86;87.70
57847;BME280;43675;50.030;21.952;2023-07-31T02:10:26;98243.98;;;15.86;87.59
57847;BME280;43675;50.030;21.952;2023-07-31T02:12:52;98243.12;;;15.87;87.61
57847;BME280;43675;50.030;21.952;2023-07-31T02:15:19;98241.83;;;15.88;87.41
57847;BME280;43675;50.030;21.952;2023-07-31T02:17:45;98240.79;;;15.86;87.27
57847;BME280;43675;50.030;21.952;2023-07-31T02:20:12;98243.95;;;15.84;87.27
57847;BME280;43675;50.030;21.952;2023-07-31T02:22:38;98244.75;;;15.81;87.17
57847;BME280;43675;50.030;21.952;2023-07-31T02:25:05;98249.43;;;15.79;87.23
57847;BME280;43675;50.030;21.952;2023-07-31T02:27:31;98245.70;;;15.79;87.28
57847;BME280;43675;50.030;21.952;2023-07-31T02:29:58;98248.50;;;15.78;87.19
57847;BME280;43675;50.030;21.952;2023-07-31T02:32:24;98246.45;;;15.78;87.12
57847;BME280;43675;50.030;21.952;2023-07-31T02:34:51;98248.81;;;15.75;87.22
57847;BME280;43675;50.030;21.952;2023-07-31T02:37:17;98252.09;;;15.73;87.10
57847;BME280;43675;50.030;21.952;2023-07-31T02:39:44;98254.40;;;15.71;86.95
57847;BME280;43675;50.030;21.952;2023-07-31T02:42:10;98252.98;;;15.70;87.09
57847;BME280;43675;50.030;21.952;2023-07-31T02:44:37;98254.44;;;15.69;87.04
57847;BME280;43675;50.030;21.952;2023-07-31T02:47:04;98256.19;;;15.66;87.01
57847;BME280;43675;50.030;21.952;2023-07-31T02:49:30;98259.10;;;15.64;87.08
57847;BME280;43675;50.030;21.952;2023-07-31T02:51:57;98260.41;;;15.60;87.14
57847;BME280;43675;50.030;21.952;2023-07-31T02:54:23;98265.42;;;15.58;87.26
57847;BME280;43675;50.030;21.952;2023-07-31T02:56:50;98263.15;;;15.57;87.41
57847;BME280;43675;50.030;21.952;2023-07-31T02:59:17;98260.13;;;15.58;87.40
57847;BME280;43675;50.030;21.952;2023-07-31T03:01:44;98260.94;;;15.58;87.37
57847;BME280;43675;50.030;21.952;2023-07-31T03:04:10;98260.50;;;15.58;87.42
57847;BME280;43675;50.030;21.952;2023-07-31T03:06:37;98259.86;;;15.59;87.35
57847;BME280;43675;50.030;21.952;2023-07-31T03:09:03;98261.17;;;15.61;87.39
57847;BME280;43675;50.030;21.952;2023-07-31T03:11:30;98259.62;;;15.61;87.43
57847;BME280;43675;50.030;21.952;2023-07-31T03:13:56;98263.41;;;15.63;87.36
57847;BME280;43675;50.030;21.952;2023-07-31T03:16:23;98261.69;;;15.63;87.37
57847;BME280;43675;50.030;21.952;2023-07-31T03:18:49;98261.38;;;15.64;87.38
57847;BME280;43675;50.030;21.952;2023-07-31T03:21:16;98260.28;;;15.63;87.33
57847;BME280;43675;50.030;21.952;2023-07-31T03:23:42;98258.11;;;15.63;87.38
57847;BME280;43675;50.030;21.952;2023-07-31T03:26:09;98258.48;;;15.62;87.42
57847;BME280;43675;50.030;21.952;2023-07-31T03:28:36;98255.39;;;15.61;87.43
57847;BME280;43675;50.030;21.952;2023-07-31T03:31:02;98255.23;;;15.61;87.41
57847;BME280;43675;50.030;21.952;2023-07-31T03:33:29;98257.02;;;15.60;87.42
57847;BME280;43675;50.030;21.952;2023-07-31T03:35:55;98261.60;;;15.59;87.53
57847;BME280;43675;50.030;21.952;2023-07-31T03:38:22;98262.27;;;15.60;87.57
57847;BME280;43675;50.030;21.952;2023-07-31T03:40:49;98268.70;;;15.61;87.70
57847;BME280;43675;50.030;21.952;2023-07-31T03:43:15;98273.58;;;15.62;87.69
57847;BME280;43675;50.030;21.952;2023-07-31T03:45:42;98272.30;;;15.63;87.70
57847;BME280;43675;50.030;21.952;2023-07-31T03:48:08;98275.88;;;15.64;87.82
57847;BME280;43675;50.030;21.952;2023-07-31T03:50:35;98279.02;;;15.66;87.79
57847;BME280;43675;50.030;21.952;2023-07-31T03:53:01;98285.44;;;15.68;87.72
57847;BME280;43675;50.030;21.952;2023-07-31T03:55:28;98284.69;;;15.69;87.80
57847;BME280;43675;50.030;21.952;2023-07-31T03:57:55;98280.15;;;15.71;87.85
57847;BME280;43675;50.030;21.952;2023-07-31T04:00:21;98282.46;;;15.75;87.94
57847;BME280;43675;50.030;21.952;2023-07-31T04:02:48;98277.91;;;15.79;88.03
57847;BME280;43675;50.030;21.952;2023-07-31T04:05:14;98281.36;;;15.85;88.05
57847;BME280;43675;50.030;21.952;2023-07-31T04:07:41;98280.00;;;15.92;88.11
57847;BME280;43675;50.030;21.952;2023-07-31T04:10:08;98278.71;;;15.99;88.07
57847;BME280;43675;50.030;21.952;2023-07-31T04:12:34;98280.45;;;16.05;87.95
57847;BME280;43675;50.030;21.952;2023-07-31T04:15:01;98280.77;;;16.12;87.82
57847;BME280;43675;50.030;21.952;2023-07-31T04:17:27;98282.11;;;16.18;87.73
57847;BME280;43675;50.030;21.952;2023-07-31T04:19:54;98282.25;;;16.24;87.60
57847;BME280;43675;50.030;21.952;2023-07-31T04:22:20;98282.36;;;16.30;87.54
57847;BME280;43675;50.030;21.952;2023-07-31T04:24:47;98281.27;;;16.37;87.51
57847;BME280;43675;50.030;21.952;2023-07-31T04:27:13;98287.27;;;16.45;87.43
57847;BME280;43675;50.030;21.952;2023-07-31T04:29:40;98286.80;;;16.55;87.27
57847;BME280;43675;50.030;21.952;2023-07-31T04:32:07;98288.02;;;16.65;87.11
57847;BME280;43675;50.030;21.952;2023-07-31T04:34:33;98291.01;;;16.77;87.03
57847;BME280;43675;50.030;21.952;2023-07-31T04:37:00;98291.46;;;16.92;86.82
57847;BME280;43675;50.030;21.952;2023-07-31T04:39:26;98289.36;;;17.12;86.52
57847;BME280;43675;50.030;21.952;2023-07-31T04:41:53;98291.83;;;17.35;86.09
57847;BME280;43675;50.030;21.952;2023-07-31T04:44:19;98294.18;;;17.62;85.56
57847;BME280;43675;50.030;21.952;2023-07-31T04:46:46;98292.81;;;17.89;84.98
57847;BME280;43675;50.030;21.952;2023-07-31T04:49:12;98294.56;;;18.15;84.40
57847;BME280;43675;50.030;21.952;2023-07-31T04:51:39;98295.46;;;18.41;83.62
57847;BME280;43675;50.030;21.952;2023-07-31T04:54:05;98295.87;;;18.69;82.87
57847;BME280;43675;50.030;21.952;2023-07-31T04:56:32;98291.88;;;18.94;81.91
57847;BME280;43675;50.030;21.952;2023-07-31T04:58:58;98287.71;;;19.16;81.06
57847;BME280;43675;50.030;21.952;2023-07-31T05:01:25;98290.19;;;19.31;80.19
57847;BME280;43675;50.030;21.952;2023-07-31T05:03:51;98290.86;;;19.41;79.41
57847;BME280;43675;50.030;21.952;2023-07-31T05:06:18;98297.48;;;19.50;78.92
57847;BME280;43675;50.030;21.952;2023-07-31T05:08:44;98295.91;;;19.56;78.29
57847;BME280;43675;50.030;21.952;2023-07-31T05:11:11;98301.66;;;19.58;77.84
57847;BME280;43675;50.030;21.952;2023-07-31T05:13:38;98304.41;;;19.61;77.51
57847;BME280;43675;50.030;21.952;2023-07-31T05:16:04;98304.83;;;19.66;77.20
57847;BME280;43675;50.030;21.952;2023-07-31T05:18:31;98311.70;;;19.64;76.90
57847;BME280;43675;50.030;21.952;2023-07-31T05:20:58;98312.63;;;19.65;76.83
57847;BME280;43675;50.030;21.952;2023-07-31T05:23:24;98309.77;;;19.67;76.48
57847;BME280;43675;50.030;21.952;2023-07-31T05:25:51;98310.50;;;19.72;76.25
57847;BME280;43675;50.030;21.952;2023-07-31T05:28:17;98318.20;;;19.77;75.80
57847;BME280;43675;50.030;21.952;2023-07-31T05:30:44;98324.09;;;19.86;75.45
57847;BME280;43675;50.030;21.952;2023-07-31T05:33:10;98327.80;;;19.99;75.23
57847;BME280;43675;50.030;21.952;2023-07-31T05:35:36;98327.65;;;20.13;74.78
57847;BME280;43675;50.030;21.952;2023-07-31T05:38:03;98324.39;;;20.24;74.13
57847;BME280;43675;50.030;21.952;2023-07-31T05:40:32;98328.63;;;20.30;73.41
57847;BME280;43675;50.030;21.952;2023-07-31T05:42:59;98326.65;;;20.28;73.12
57847;BME280;43675;50.030;21.952;2023-07-31T05:45:25;98326.93;;;20.25;73.04
57847;BME280;43675;50.030;21.952;2023-07-31T05:47:52;98330.89;;;20.22;72.88
57847;BME280;43675;50.030;21.952;2023-07-31T05:50:18;98333.94;;;20.10;72.56
57847;BME280;43675;50.030;21.952;2023-07-31T05:52:45;98331.80;;;19.96;72.72
57847;BME280;43675;50.030;21.952;2023-07-31T05:55:11;98338.13;;;19.93;73.02
57847;BME280;43675;50.030;21.952;2023-07-31T05:57:38;98337.48;;;19.93;72.94
57847;BME280;43675;50.030;21.952;2023-07-31T06:00:05;98341.73;;;19.93;72.89
57847;BME280;43675;50.030;21.952;2023-07-31T06:02:32;98342.53;;;19.96;72.85
57847;BME280;43675;50.030;21.952;2023-07-31T06:04:59;98342.74;;;20.05;72.56
57847;BME280;43675;50.030;21.952;2023-07-31T06:07:25;98342.29;;;20.13;72.21
57847;BME280;43675;50.030;21.952;2023-07-31T06:09:52;98342.19;;;20.19;71.98
57847;BME280;43675;50.030;21.952;2023-07-31T06:12:18;98342.30;;;20.28;71.75
57847;BME280;43675;50.030;21.952;2023-07-31T06:14:45;98342.16;;;20.40;71.46
57847;BME280;43675;50.030;21.952;2023-07-31T06:17:11;98344.59;;;20.60;71.29
57847;BME280;43675;50.030;21.952;2023-07-31T06:19:38;98347.75;;;20.78;70.66
57847;BME280;43675;50.030;21.952;2023-07-31T06:22:05;98341.44;;;20.91;70.05
57847;BME280;43675;50.030;21.952;2023-07-31T06:24:31;98338.83;;;21.01;69.76
57847;BME280;43675;50.030;21.952;2023-07-31T06:26:58;98340.50;;;21.19;69.21
57847;BME280;43675;50.030;21.952;2023-07-31T06:29:24;98341.63;;;21.37;68.50
57847;BME280;43675;50.030;21.952;2023-07-31T06:31:51;98340.54;;;21.47;68.27
57847;BME280;43675;50.030;21.952;2023-07-31T06:34:17;98344.91;;;21.46;67.87
57847;BME280;43675;50.030;21.952;2023-07-31T06:36:44;98342.92;;;21.39;67.70
57847;BME280;43675;50.030;21.952;2023-07-31T06:39:10;98344.65;;;21.27;67.58
57847;BME280;43675;50.030;21.952;2023-07-31T06:41:38;98343.86;;;21.20;67.52
57847;BME280;43675;50.030;21.952;2023-07-31T06:44:04;98346.96;;;21.18;67.72
57847;BME280;43675;50.030;21.952;2023-07-31T06:46:31;98346.09;;;21.27;67.61
57847;BME280;43675;50.030;21.952;2023-07-31T06:48:57;98347.52;;;21.38;67.56
57847;BME280;43675;50.030;21.952;2023-07-31T06:51:24;98344.86;;;21.54;67.26
57847;BME280;43675;50.030;21.952;2023-07-31T06:53:50;98348.81;;;21.57;66.91
57847;BME280;43675;50.030;21.952;2023-07-31T06:56:17;98351.25;;;21.62;66.83
57847;BME280;43675;50.030;21.952;2023-07-31T06:58:43;98348.38;;;21.72;66.77
57847;BME280;43675;50.030;21.952;2023-07-31T07:01:10;98348.46;;;21.81;66.42
57847;BME280;43675;50.030;21.952;2023-07-31T07:03:36;98353.30;;;21.88;66.25
57847;BME280;43675;50.030;21.952;2023-07-31T07:06:03;98353.52;;;22.04;66.02
57847;BME280;43675;50.030;21.952;2023-07-31T07:08:29;98353.38;;;22.06;65.38
57847;BME280;43675;50.030;21.952;2023-07-31T07:10:56;98355.30;;;22.01;65.17
57847;BME280;43675;50.030;21.952;2023-07-31T07:13:22;98354.55;;;21.98;65.07
57847;BME280;43675;50.030;21.952;2023-07-31T07:15:49;98356.51;;;21.94;64.88
57847;BME280;43675;50.030;21.952;2023-07-31T07:18:17;98353.54;;;21.86;64.85
57847;BME280;43675;50.030;21.952;2023-07-31T07:20:50;98350.54;;;21.85;64.77
57847;BME280;43675;50.030;21.952;2023-07-31T07:23:18;98353.88;;;21.85;64.81
57847;BME280;43675;50.030;21.952;2023-07-31T07:25:45;98355.33;;;21.87;64.58
57847;BME280;43675;50.030;21.952;2023-07-31T07:28:11;98349.92;;;21.83;64.56
57847;BME280;43675;50.030;21.952;2023-07-31T07:30:38;98345.33;;;21.83;64.64
57847;BME280;43675;50.030;21.952;2023-07-31T07:33:05;98346.61;;;21.98;64.78
57847;BME280;43675;50.030;21.952;2023-07-31T07:35:35;98345.88;;;22.22;64.53
57847;BME280;43675;50.030;21.952;2023-07-31T07:38:03;98345.84;;;22.49;64.19
57847;BME280;43675;50.030;21.952;2023-07-31T07:40:29;98345.13;;;22.66;63.51
57847;BME280;43675;50.030;21.952;2023-07-31T07:42:56;98348.27;;;22.73;63.00
57847;BME280;43675;50.030;21.952;2023-07-31T07:45:22;98348.61;;;22.77;62.98
57847;BME280;43675;50.030;21.952;2023-07-31T07:47:49;98352.23;;;22.79;62.78
57847;BME280;43675;50.030;21.952;2023-07-31T07:50:15;98347.08;;;22.80;62.88
57847;BME280;43675;50.030;21.952;2023-07-31T07:52:42;98350.58;;;22.88;62.90
57847;BME280;43675;50.030;21.952;2023-07-31T07:55:08;98347.46;;;22.95;62.62
57847;BME280;43675;50.030;21.952;2023-07-31T07:57:35;98349.11;;;23.03;62.46
57847;BME280;43675;50.030;21.952;2023-07-31T08:00:02;98347.52;;;23.15;62.32
57847;BME280;43675;50.030;21.952;2023-07-31T08:02:28;98345.36;;;23.32;62.28
57847;BME280;43675;50.030;21.952;2023-07-31T08:04:55;98342.44;;;23.53;61.50
57847;BME280;43675;50.030;21.952;2023-07-31T08:07:21;98342.45;;;23.67;61.09
57847;BME280;43675;50.030;21.952;2023-07-31T08:09:48;98340.45;;;23.85;61.02
57847;BME280;43675;50.030;21.952;2023-07-31T08:12:15;98340.81;;;24.10;60.63
57847;BME280;43675;50.030;21.952;2023-07-31T08:14:41;98345.84;;;24.30;60.23
57847;BME280;43675;50.030;21.952;2023-07-31T08:17:07;98345.00;;;24.50;59.69
57847;BME280;43675;50.030;21.952;2023-07-31T08:19:34;98346.24;;;24.64;59.16
57847;BME280;43675;50.030;21.952;2023-07-31T08:22:00;98345.30;;;24.71;58.54
57847;BME280;43675;50.030;21.952;2023-07-31T08:24:27;98348.63;;;24.87;57.97
57847;BME280;43675;50.030;21.952;2023-07-31T08:26:53;98349.21;;;24.94;57.70
57847;BME280;43675;50.030;21.952;2023-07-31T08:29:20;98348.21;;;24.99;57.32
57847;BME280;43675;50.030;21.952;2023-07-31T08:31:47;98352.83;;;24.98;56.92
57847;BME280;43675;50.030;21.952;2023-07-31T08:34:13;98352.31;;;24.64;56.66
57847;BME280;43675;50.030;21.952;2023-07-31T08:36:40;98350.14;;;24.25;56.88
57847;BME280;43675;50.030;21.952;2023-07-31T08:39:06;98350.29;;;23.84;57.84
57847;BME280;43675;50.030;21.952;2023-07-31T08:41:38;98352.02;;;23.57;58.09
57847;BME280;43675;50.030;21.952;2023-07-31T08:44:06;98355.56;;;23.48;58.76
57847;BME280;43675;50.030;21.952;2023-07-31T08:46:33;98355.28;;;23.42;58.63
57847;BME280;43675;50.030;21.952;2023-07-31T08:49:04;98354.41;;;23.43;59.06
57847;BME280;43675;50.030;21.952;2023-07-31T08:51:33;98353.90;;;23.46;59.15
57847;BME280;43675;50.030;21.952;2023-07-31T08:54:00;98356.19;;;23.52;58.81
57847;BME280;43675;50.030;21.952;2023-07-31T08:56:28;98362.24;;;23.51;58.94
57847;BME280;43675;50.030;21.952;2023-07-31T08:58:55;98363.65;;;23.40;58.98
57847;BME280;43675;50.030;21.952;2023-07-31T09:01:23;98360.71;;;23.33;59.29
57847;BME280;43675;50.030;21.952;2023-07-31T09:03:51;98355.69;;;23.22;59.09
57847;BME280;43675;50.030;21.952;2023-07-31T09:06:19;98351.71;;;23.21;59.25
57847;BME280;43675;50.030;21.952;2023-07-31T09:08:47;98353.91;;;23.27;59.29
57847;BME280;43675;50.030;21.952;2023-07-31T09:11:13;98356.20;;;23.35;59.07
57847;BME280;43675;50.030;21.952;2023-07-31T09:13:41;98350.22;;;23.55;59.03
57847;BME280;43675;50.030;21.952;2023-07-31T09:16:08;98343.16;;;23.84;58.35
57847;BME280;43675;50.030;21.952;2023-07-31T09:19:01;98351.13;;;24.24;57.92
57847;BME280;43675;50.030;21.952;2023-07-31T09:21:28;98356.02;;;24.59;57.00
57847;BME280;43675;50.030;21.952;2023-07-31T09:23:55;98352.58;;;24.74;56.55
57847;BME280;43675;50.030;21.952;2023-07-31T09:26:32;98359.25;;;24.76;56.13
57847;BME280;43675;50.030;21.952;2023-07-31T09:29:00;98362.85;;;24.87;56.11
57847;BME280;43675;50.030;21.952;2023-07-31T09:31:41;98356.23;;;24.93;55.30
57847;BME280;43675;50.030;21.952;2023-07-31T09:34:08;98354.84;;;25.09;55.32
57847;BME280;43675;50.030;21.952;2023-07-31T09:36:45;98358.73;;;25.25;54.80
57847;BME280;43675;50.030;21.952;2023-07-31T09:39:14;98356.39;;;25.43;54.10
57847;BME280;43675;50.030;21.952;2023-07-31T09:41:43;98356.92;;;25.41;53.55
57847;BME280;43675;50.030;21.952;2023-07-31T09:44:11;98357.63;;;25.27;53.65
57847;BME280;43675;50.030;21.952;2023-07-31T09:46:38;98365.44;;;25.09;53.94
57847;BME280;43675;50.030;21.952;2023-07-31T09:49:13;98368.45;;;24.86;54.32
57847;BME280;43675;50.030;21.952;2023-07-31T09:51:42;98365.84;;;24.68;54.35
57847;BME280;43675;50.030;21.952;2023-07-31T09:54:13;98363.88;;;24.74;54.76
57847;BME280;43675;50.030;21.952;2023-07-31T09:56:47;98364.60;;;24.97;54.39
57847;BME280;43675;50.030;21.952;2023-07-31T09:59:18;98361.04;;;25.21;53.81
57847;BME280;43675;50.030;21.952;2023-07-31T10:01:45;98359.67;;;25.50;53.58
57847;BME280;43675;50.030;21.952;2023-07-31T10:04:13;98364.42;;;25.63;53.32
57847;BME280;43675;50.030;21.952;2023-07-31T10:06:42;98365.12;;;25.58;53.01
57847;BME280;43675;50.030;21.952;2023-07-31T10:09:11;98366.26;;;25.44;53.20
57847;BME280;43675;50.030;21.952;2023-07-31T10:11:53;98365.09;;;25.18;53.07
57847;BME280;43675;50.030;21.952;2023-07-31T10:14:23;98367.94;;;24.93;53.66
57847;BME280;43675;50.030;21.952;2023-07-31T10:16:50;98368.23;;;24.75;53.44
57847;BME280;43675;50.030;21.952;2023-07-31T10:19:19;98368.80;;;24.56;53.40
57847;BME280;43675;50.030;21.952;2023-07-31T10:21:48;98367.56;;;24.55;53.87
57847;BME280;43675;50.030;21.952;2023-07-31T10:24:15;98366.73;;;24.63;53.86
57847;BME280;43675;50.030;21.952;2023-07-31T10:26:44;98360.80;;;24.81;53.54
57847;BME280;43675;50.030;21.952;2023-07-31T10:29:12;98362.86;;;25.12;53.16
57847;BME280;43675;50.030;21.952;2023-07-31T10:31:40;98371.59;;;25.35;52.45
57847;BME280;43675;50.030;21.952;2023-07-31T10:34:07;98363.96;;;25.38;52.13
57847;BME280;43675;50.030;21.952;2023-07-31T10:36:34;98361.09;;;25.54;52.17
57847;BME280;43675;50.030;21.952;2023-07-31T10:39:03;98364.70;;;25.73;52.02
57847;BME280;43675;50.030;21.952;2023-07-31T10:41:30;98357.71;;;25.88;51.50
57847;BME280;43675;50.030;21.952;2023-07-31T10:43:59;98356.01;;;26.01;50.98
57847;BME280;43675;50.030;21.952;2023-07-31T10:46:29;98352.09;;;26.06;50.51
57847;BME280;43675;50.030;21.952;2023-07-31T10:49:00;98343.38;;;26.21;50.77
57847;BME280;43675;50.030;21.952;2023-07-31T10:51:34;98343.95;;;26.50;50.43
57847;BME280;43675;50.030;21.952;2023-07-31T10:54:14;98341.45;;;26.82;49.94
57847;BME280;43675;50.030;21.952;2023-07-31T10:56:45;98346.52;;;27.17;50.31
57847;BME280;43675;50.030;21.952;2023-07-31T10:59:13;98341.95;;;27.32;49.19
57847;BME280;43675;50.030;21.952;2023-07-31T11:01:54;98336.33;;;27.44;48.75
57847;BME280;43675;50.030;21.952;2023-07-31T11:04:25;98337.83;;;27.57;48.27
57847;BME280;43675;50.030;21.952;2023-07-31T11:07:00;98330.04;;;27.74;47.72
57847;BME280;43675;50.030;21.952;2023-07-31T11:09:29;98330.30;;;27.77;47.27
57847;BME280;43675;50.030;21.952;2023-07-31T11:11:56;98327.80;;;27.77;46.81
57847;BME280;43675;50.030;21.952;2023-07-31T11:14:23;98323.30;;;27.77;46.39
57847;BME280;43675;50.030;21.952;2023-07-31T11:16:50;98322.86;;;27.80;46.02
57847;BME280;43675;50.030;21.952;2023-07-31T11:19:26;98322.39;;;27.82;46.65
57847;BME280;43675;50.030;21.952;2023-07-31T11:21:52;98319.29;;;27.87;46.01
57847;BME280;43675;50.030;21.952;2023-07-31T11:24:19;98313.54;;;27.81;45.46
57847;BME280;43675;50.030;21.952;2023-07-31T11:26:51;98309.13;;;27.72;45.41
57847;BME280;43675;50.030;21.952;2023-07-31T11:29:18;98302.19;;;27.66;45.50
57847;BME280;43675;50.030;21.952;2023-07-31T11:31:46;98308.38;;;27.62;45.05
57847;BME280;43675;50.030;21.952;2023-07-31T11:34:13;98313.34;;;27.62;45.19
57847;BME280;43675;50.030;21.952;2023-07-31T11:36:39;98309.67;;;27.60;44.90
57847;BME280;43675;50.030;21.952;2023-07-31T11:39:08;98312.96;;;27.56;45.22
57847;BME280;43675;50.030;21.952;2023-07-31T11:41:35;98317.94;;;27.52;44.73
57847;BME280;43675;50.030;21.952;2023-07-31T11:44:02;98319.41;;;27.35;44.69
57847;BME280;43675;50.030;21.952;2023-07-31T11:46:31;98319.34;;;27.08;45.03
57847;BME280;43675;50.030;21.952;2023-07-31T11:49:00;98316.20;;;26.99;45.62
57847;BME280;43675;50.030;21.952;2023-07-31T11:51:27;98323.08;;;26.98;45.80
57847;BME280;43675;50.030;21.952;2023-07-31T11:54:00;98314.94;;;26.93;45.84
57847;BME280;43675;50.030;21.952;2023-07-31T11:56:28;98316.77;;;26.96;45.50
57847;BME280;43675;50.030;21.952;2023-07-31T11:58:58;98314.73;;;26.96;45.44
57847;BME280;43675;50.030;21.952;2023-07-31T12:01:26;98311.09;;;27.07;45.54
57847;BME280;43675;50.030;21.952;2023-07-31T12:03:54;98308.05;;;27.09;45.27
57847;BME280;43675;50.030;21.952;2023-07-31T12:06:21;98306.17;;;27.13;45.17
57847;BME280;43675;50.030;21.952;2023-07-31T12:08:48;98303.17;;;27.17;45.14
57847;BME280;43675;50.030;21.952;2023-07-31T12:11:14;98305.34;;;27.16;45.34
57847;BME280;43675;50.030;21.952;2023-07-31T12:13:41;98303.23;;;27.16;45.11
57847;BME280;43675;50.030;21.952;2023-07-31T12:16:07;98300.61;;;27.10;45.08
57847;BME280;43675;50.030;21.952;2023-07-31T12:18:36;98299.89;;;27.10;45.59
57847;BME280;43675;50.030;21.952;2023-07-31T12:21:08;98296.16;;;27.13;45.05
57847;BME280;43675;50.030;21.952;2023-07-31T12:23:36;98293.23;;;27.16;45.37
57847;BME280;43675;50.030;21.952;2023-07-31T12:28:30;98286.56;;;27.19;45.08
57847;BME280;43675;50.030;21.952;2023-07-31T12:31:00;98288.93;;;27.11;45.22
57847;BME280;43675;50.030;21.952;2023-07-31T12:33:35;98285.63;;;26.92;45.45
57847;BME280;43675;50.030;21.952;2023-07-31T12:36:03;98284.02;;;26.81;45.73
57847;BME280;43675;50.030;21.952;2023-07-31T12:38:30;98282.41;;;26.79;46.28
57847;BME280;43675;50.030;21.952;2023-07-31T12:40:57;98277.96;;;26.93;45.82
57847;BME280;43675;50.030;21.952;2023-07-31T12:43:24;98281.58;;;27.06;45.40
57847;BME280;43675;50.030;21.952;2023-07-31T12:45:51;98281.27;;;27.04;44.58
57847;BME280;43675;50.030;21.952;2023-07-31T12:48:18;98274.39;;;26.96;44.57
57847;BME280;43675;50.030;21.952;2023-07-31T12:50:45;98274.10;;;26.88;44.69
57847;BME280;43675;50.030;21.952;2023-07-31T12:53:11;98268.83;;;26.87;44.90
57847;BME280;43675;50.030;21.952;2023-07-31T12:55:39;98273.61;;;26.92;45.04
57847;BME280;43675;50.030;21.952;2023-07-31T12:58:05;98273.77;;;26.94;44.83
57847;BME280;43675;50.030;21.952;2023-07-31T13:00:32;98275.10;;;26.91;44.79
57847;BME280;43675;50.030;21.952;2023-07-31T13:02:59;98272.93;;;26.77;45.10